Time;durP1;ratioP1;P1;durP2;ratioP2;P2;SDS_P1;SDS_P2;PMS_P1;PMS_P2;Temp;Humidity;BMP_temperature;BMP_pressure;BME280_temperature;BME280_humidity;BME280_pressure;Samples;Min_cycle;Max_cycle;Signal;HPM_P1;HPM_P2
2022/06/28 00:02:07;;;;;;;1.70;0.90;;;13.10;99.90;;;;;;5002401;28;20095;-85
2022/06/28 00:04:33;;;;;;;1.90;0.75;;;13.10;99.90;;;;;;5018475;28;20020;-84
2022/06/28 00:06:59;;;;;;;5.57;1.05;;;13.00;99.90;;;;;;5003039;28;20489;-84
2022/06/28 00:09:26;;;;;;;1.73;0.90;;;13.00;99.90;;;;;;5015605;28;20041;-85
2022/06/28 00:11:52;;;;;;;2.50;1.05;;;12.90;99.90;;;;;;5018082;28;20033;-84
2022/06/28 00:17:02;;;;;;;1.52;0.98;;;12.90;99.90;;;;;;5015780;28;20037;-85
2022/06/28 00:19:28;;;;;;;1.45;0.80;;;12.80;99.90;;;;;;5017377;28;20025;-84
2022/06/28 00:21:55;;;;;;;2.47;1.10;;;12.80;99.90;;;;;;5004574;28;20040;-84
2022/06/28 00:24:21;;;;;;;3.33;0.90;;;12.90;99.90;;;;;;5002249;28;20560;-85
2022/06/28 00:26:48;;;;;;;2.15;1.00;;;12.90;99.90;;;;;;5020335;28;20362;-85
2022/06/28 00:29:14;;;;;;;1.60;0.85;;;12.80;99.90;;;;;;5015394;28;20037;-84
2022/06/28 00:31:41;;;;;;;2.63;0.90;;;12.90;99.90;;;;;;5016805;28;20029;-84
2022/06/28 00:34:08;;;;;;;2.17;1.10;;;12.80;99.90;;;;;;4999437;28;20036;-84
2022/06/28 00:36:34;;;;;;;1.77;1.08;;;12.90;99.90;;;;;;5002787;28;20088;-84
2022/06/28 00:38:59;;;;;;;1.98;1.00;;;12.80;99.90;;;;;;5023089;28;20033;-84
2022/06/28 00:41:26;;;;;;;1.67;0.80;;;12.80;99.90;;;;;;5033053;28;20704;-83
2022/06/28 00:43:52;;;;;;;2.35;1.20;;;12.90;99.90;;;;;;5016124;28;20597;-84
2022/06/28 00:46:18;;;;;;;1.80;0.90;;;12.90;99.90;;;;;;5003446;28;20029;-84
2022/06/28 00:48:44;;;;;;;4.13;1.27;;;12.90;99.90;;;;;;5016970;28;20045;-84
2022/06/28 00:51:10;;;;;;;3.78;1.90;;;12.90;99.90;;;;;;5003299;28;22174;-84
2022/06/28 00:53:36;;;;;;;3.35;1.10;;;12.80;99.90;;;;;;5011127;28;20083;-84
2022/06/28 00:56:02;;;;;;;1.92;1.15;;;12.70;99.90;;;;;;5021664;28;20055;-84
2022/06/28 00:58:28;;;;;;;1.30;0.70;;;12.80;99.90;;;;;;5033934;28;20029;-84
2022/06/28 01:00:54;;;;;;;2.70;1.35;;;12.70;99.90;;;;;;5002925;28;20029;-84
2022/06/28 01:03:22;;;;;;;1.98;0.90;;;12.80;99.90;;;;;;5018818;28;20032;-85
2022/06/28 01:05:51;;;;;;;2.17;1.15;;;12.70;99.90;;;;;;5001405;28;20645;-84
2022/06/28 01:08:18;;;;;;;2.45;1.10;;;12.70;99.90;;;;;;5016125;28;20566;-85
2022/06/28 01:10:44;;;;;;;4.57;1.67;;;12.70;99.90;;;;;;4999199;28;20033;-84
2022/06/28 01:13:13;;;;;;;3.03;1.23;;;12.60;99.90;;;;;;5002843;28;20033;-84
2022/06/28 01:15:41;;;;;;;2.45;1.48;;;12.60;99.90;;;;;;4999559;28;20094;-84
2022/06/28 01:18:09;;;;;;;2.58;1.30;;;12.50;99.90;;;;;;5032622;28;20024;-84
2022/06/28 01:20:46;;;;;;;2.58;1.10;;;12.60;99.90;;;;;;5017136;28;20025;-84
2022/06/28 01:23:24;;;;;;;2.60;1.42;;;12.60;99.90;;;;;;5000930;28;20038;-84
2022/06/28 01:26:13;;;;;;;2.47;1.30;;;12.50;99.90;;;;;;5003430;28;20060;-83
2022/06/28 01:28:43;;;;;;;2.95;1.40;;;12.50;99.90;;;;;;5021172;28;20041;-84
2022/06/28 01:31:25;;;;;;;2.13;1.30;;;12.50;99.90;;;;;;5018112;28;20212;-84
2022/06/28 01:33:52;;;;;;;2.42;1.50;;;12.40;99.90;;;;;;5004100;28;20029;-84
2022/06/28 01:36:19;;;;;;;1.88;1.20;;;12.40;99.90;;;;;;5000447;28;20021;-84
2022/06/28 01:38:45;;;;;;;2.58;1.42;;;12.40;99.90;;;;;;4999131;28;20112;-84
2022/06/28 01:41:32;;;;;;;2.20;1.77;;;12.30;99.90;;;;;;5030655;28;20479;-84
2022/06/28 01:44:04;;;;;;;2.58;1.55;;;12.20;99.90;;;;;;5000877;28;20773;-84
2022/06/28 01:46:31;;;;;;;2.33;1.90;;;12.20;99.90;;;;;;4998668;28;20060;-84
2022/06/28 01:49:03;;;;;;;2.47;1.77;;;12.20;99.90;;;;;;5020056;28;20374;-84
2022/06/28 01:51:30;;;;;;;2.45;1.48;;;12.10;99.90;;;;;;5016230;28;20017;-84
2022/06/28 01:53:56;;;;;;;2.75;1.33;;;12.10;99.90;;;;;;5015549;28;22435;-84
2022/06/28 01:56:31;;;;;;;2.67;1.70;;;12.10;99.90;;;;;;5004793;28;20393;-84
2022/06/28 01:59:01;;;;;;;2.40;1.52;;;12.10;99.90;;;;;;5000522;28;20039;-84
2022/06/28 02:01:37;;;;;;;3.05;1.77;;;12.10;99.90;;;;;;5001419;28;20079;-84
2022/06/28 02:04:22;;;;;;;2.42;1.50;;;12.00;99.90;;;;;;5015704;28;20034;-85
2022/06/28 02:06:54;;;;;;;2.50;1.65;;;11.90;99.90;;;;;;5017260;28;20053;-85
2022/06/28 02:09:21;;;;;;;2.30;1.45;;;11.90;99.90;;;;;;5015600;28;20041;-85
2022/06/28 02:11:48;;;;;;;2.15;1.77;;;11.90;99.90;;;;;;5000388;28;20059;-84
2022/06/28 02:14:19;;;;;;;2.55;1.80;;;11.80;99.90;;;;;;5007058;28;20030;-84
2022/06/28 02:16:45;;;;;;;2.75;1.40;;;11.90;99.90;;;;;;5037151;28;20028;-85
2022/06/28 02:19:11;;;;;;;2.33;1.25;;;11.80;99.90;;;;;;5020164;28;20108;-84
2022/06/28 02:21:39;;;;;;;2.00;1.40;;;11.80;99.90;;;;;;5019683;28;20038;-84
2022/06/28 02:24:07;;;;;;;2.47;1.48;;;11.80;99.90;;;;;;5006177;28;20037;-84
2022/06/28 02:26:33;;;;;;;2.40;1.50;;;11.80;99.90;;;;;;5051316;28;20111;-84
2022/06/28 02:29:05;;;;;;;1.88;1.38;;;11.80;99.90;;;;;;5022870;28;20765;-82
2022/06/28 02:31:31;;;;;;;2.05;1.40;;;12.00;99.90;;;;;;5017726;28;20465;-84
2022/06/28 02:33:58;;;;;;;2.40;2.03;;;12.00;99.90;;;;;;5024127;28;20039;-84
2022/06/28 02:40:21;;;;;;;2.13;1.48;;;11.80;99.90;;;;;;5037417;28;20036;-83
2022/06/28 02:41:55;;;;;;;2.55;1.45;;;11.70;99.90;;;;;;5017955;28;20028;-83
2022/06/28 02:44:21;;;;;;;3.17;1.90;;;11.70;99.90;;;;;;5050950;28;20037;-83
2022/06/28 02:46:47;;;;;;;2.50;1.80;;;11.80;99.90;;;;;;5025575;28;20473;-82
2022/06/28 02:49:14;;;;;;;2.10;1.50;;;11.80;99.90;;;;;;5004802;28;20045;-84
2022/06/28 02:51:41;;;;;;;2.28;2.05;;;11.70;99.90;;;;;;5034827;28;20079;-84
2022/06/28 02:54:07;;;;;;;2.40;1.77;;;11.70;99.90;;;;;;5024351;28;20486;-84
2022/06/28 02:56:33;;;;;;;3.42;2.22;;;11.80;99.90;;;;;;5003185;28;20060;-84
2022/06/28 02:58:59;;;;;;;2.60;2.00;;;11.70;99.90;;;;;;5001879;28;20032;-84
2022/06/28 03:01:25;;;;;;;4.38;2.17;;;11.70;99.90;;;;;;5005399;28;20025;-84
2022/06/28 03:03:51;;;;;;;2.35;1.80;;;11.70;99.90;;;;;;5035237;28;20029;-84
2022/06/28 03:06:17;;;;;;;2.60;1.67;;;11.80;99.90;;;;;;5021293;28;20049;-84
2022/06/28 03:08:43;;;;;;;2.45;2.08;;;11.80;99.90;;;;;;5008702;28;20048;-83
2022/06/28 03:11:09;;;;;;;2.78;1.77;;;11.90;99.90;;;;;;5007709;28;20029;-84
2022/06/28 03:13:35;;;;;;;2.33;1.52;;;11.80;99.90;;;;;;5021363;28;20524;-84
2022/06/28 03:16:02;;;;;;;2.47;2.05;;;11.80;99.90;;;;;;5012788;28;20017;-84
2022/06/28 03:18:28;;;;;;;2.72;1.40;;;11.70;99.90;;;;;;5038178;28;20040;-84
2022/06/28 03:20:53;;;;;;;2.17;1.48;;;11.80;99.90;;;;;;5019969;28;20017;-84
2022/06/28 03:23:19;;;;;;;2.17;1.42;;;11.80;99.90;;;;;;5005110;28;20061;-84
2022/06/28 03:25:46;;;;;;;3.33;1.50;;;11.80;99.90;;;;;;5019345;28;20036;-84
2022/06/28 03:28:12;;;;;;;4.05;1.58;;;11.80;99.90;;;;;;5002602;28;20191;-84
2022/06/28 03:30:38;;;;;;;2.15;1.52;;;11.80;99.90;;;;;;5002376;28;20494;-84
2022/06/28 03:33:04;;;;;;;2.58;1.98;;;11.80;99.90;;;;;;5004012;28;20063;-84
2022/06/28 03:35:34;;;;;;;2.65;1.77;;;11.80;99.90;;;;;;5001223;28;20397;-84
2022/06/28 03:37:59;;;;;;;2.38;1.80;;;11.80;99.90;;;;;;5001261;28;20040;-84
2022/06/28 03:40:45;;;;;;;2.95;1.92;;;11.90;99.90;;;;;;5034944;28;20043;-84
2022/06/28 03:43:11;;;;;;;2.10;1.73;;;11.80;99.90;;;;;;5006394;28;20127;-84
2022/06/28 03:45:37;;;;;;;2.38;1.48;;;11.70;99.90;;;;;;5021300;28;20744;-84
2022/06/28 03:48:30;;;;;;;1.90;1.45;;;11.60;99.90;;;;;;5004902;28;20041;-84
2022/06/28 03:51:15;;;;;;;2.20;1.83;;;11.80;99.90;;;;;;5033323;28;20043;-84
2022/06/28 03:54:12;;;;;;;2.15;1.40;;;11.80;99.90;;;;;;5023795;28;22350;-84
2022/06/28 03:56:44;;;;;;;1.98;1.50;;;11.90;99.90;;;;;;5002384;28;20124;-84
2022/06/28 03:59:10;;;;;;;1.55;1.15;;;11.80;99.90;;;;;;5000892;28;20116;-83
2022/06/28 04:01:36;;;;;;;3.53;1.65;;;11.90;99.90;;;;;;5032220;28;20028;-84
2022/06/28 04:04:02;;;;;;;3.45;1.52;;;12.00;99.90;;;;;;5005258;28;20029;-84
2022/06/28 04:06:28;;;;;;;4.47;1.40;;;11.90;99.90;;;;;;5000724;28;20191;-82
2022/06/28 04:08:54;;;;;;;2.45;1.35;;;12.00;99.90;;;;;;5017543;28;20041;-84
2022/06/28 04:11:21;;;;;;;2.45;1.55;;;12.00;99.90;;;;;;5005272;28;20055;-83
2022/06/28 04:13:50;;;;;;;1.90;1.60;;;12.00;99.90;;;;;;5018860;28;20123;-84
2022/06/28 04:16:18;;;;;;;1.90;1.33;;;12.00;99.90;;;;;;5000749;28;20021;-84
2022/06/28 04:18:45;;;;;;;1.95;1.20;;;12.00;99.90;;;;;;5032020;28;20060;-84
2022/06/28 04:21:25;;;;;;;4.22;1.20;;;12.10;99.90;;;;;;5018682;28;20029;-84
2022/06/28 04:24:04;;;;;;;2.35;1.77;;;12.10;99.90;;;;;;5001595;28;20167;-82
2022/06/28 04:26:30;;;;;;;2.55;1.83;;;12.20;99.90;;;;;;4999745;28;20404;-83
2022/06/28 04:28:57;;;;;;;2.40;1.88;;;12.30;99.90;;;;;;5000559;28;20048;-84
2022/06/28 04:31:25;;;;;;;2.15;1.95;;;12.40;99.90;;;;;;5003364;28;20098;-84
2022/06/28 04:33:51;;;;;;;2.17;1.73;;;12.50;99.90;;;;;;5018844;28;20044;-83
2022/06/28 04:36:22;;;;;;;;;;;12.60;99.90;;;;;;5022197;28;20117;-82
2022/06/28 04:38:49;;;;;;;2.40;1.40;;;12.70;99.90;;;;;;5012335;28;20178;-82
2022/06/28 04:41:19;;;;;;;2.47;1.35;;;12.80;99.90;;;;;;4999434;28;20037;-83
2022/06/28 04:44:08;;;;;;;2.45;2.15;;;12.90;99.90;;;;;;5011757;28;20045;-81
2022/06/28 04:46:38;;;;;;;2.20;1.80;;;13.10;99.90;;;;;;5002039;28;20033;-82
2022/06/28 04:49:06;;;;;;;2.75;2.03;;;13.30;99.90;;;;;;5020199;28;20051;-82
2022/06/28 04:51:39;;;;;;;2.15;1.92;;;13.30;99.90;;;;;;5018077;28;20073;-82
2022/06/28 04:54:05;;;;;;;2.40;2.03;;;13.50;99.90;;;;;;5016484;28;20060;-81
2022/06/28 04:56:40;;;;;;;2.38;1.83;;;13.60;99.90;;;;;;5020073;28;20025;-82
2022/06/28 04:59:06;;;;;;;2.35;1.58;;;13.80;99.90;;;;;;5030225;28;20544;-82
2022/06/28 05:01:32;;;;;;;2.47;1.75;;;13.90;99.90;;;;;;5030762;28;20287;-83
2022/06/28 05:03:57;;;;;;;3.63;2.00;;;14.10;99.90;;;;;;4998654;28;20496;-81
2022/06/28 05:06:42;;;;;;;3.05;1.73;;;14.20;99.90;;;;;;5018944;28;20055;-81
2022/06/28 05:09:08;;;;;;;2.58;1.88;;;14.30;99.90;;;;;;5018086;28;20037;-82
2022/06/28 05:11:34;;;;;;;2.70;1.80;;;14.50;99.90;;;;;;4998876;28;20070;-82
2022/06/28 05:14:09;;;;;;;3.03;1.75;;;14.50;99.90;;;;;;5016408;28;20064;-82
2022/06/28 05:16:35;;;;;;;4.03;2.20;;;14.70;99.90;;;;;;5001083;28;20481;-82
2022/06/28 05:19:00;;;;;;;3.00;2.45;;;14.80;99.90;;;;;;4998885;28;20140;-82
2022/06/28 05:21:34;;;;;;;3.22;1.80;;;15.00;99.90;;;;;;5017046;28;20048;-82
2022/06/28 05:24:00;;;;;;;2.67;2.47;;;15.00;99.90;;;;;;5000339;28;20032;-81
2022/06/28 05:26:28;;;;;;;2.53;2.15;;;15.00;99.90;;;;;;5031279;28;20363;-82
2022/06/28 05:29:20;;;;;;;2.20;1.98;;;15.20;99.90;;;;;;5016730;28;20059;-82
2022/06/28 05:31:46;;;;;;;2.70;1.67;;;15.30;99.90;;;;;;4976871;28;22911;-80
2022/06/28 05:34:12;;;;;;;2.75;1.45;;;15.30;99.90;;;;;;5018134;28;20033;-81
2022/06/28 05:36:39;;;;;;;2.58;1.67;;;15.40;99.90;;;;;;5017722;28;20032;-81
2022/06/28 05:39:05;;;;;;;3.67;2.25;;;15.50;99.90;;;;;;5012836;28;20050;-81
2022/06/28 05:41:32;;;;;;;2.00;1.48;;;15.60;99.90;;;;;;5014310;28;20033;-81
2022/06/28 05:43:58;;;;;;;3.08;1.20;;;15.80;99.90;;;;;;5016922;28;20064;-80
2022/06/28 05:46:25;;;;;;;2.15;1.05;;;15.80;99.90;;;;;;5033052;28;20361;-82
2022/06/28 05:48:51;;;;;;;3.67;1.58;;;15.90;99.90;;;;;;5034523;28;20159;-82
2022/06/28 05:51:17;;;;;;;4.25;2.50;;;15.80;99.90;;;;;;5019271;28;20067;-81
2022/06/28 05:53:43;;;;;;;4.20;1.80;;;15.70;99.90;;;;;;5022600;28;20504;-82
2022/06/28 05:56:09;;;;;;;3.78;1.60;;;15.90;99.90;;;;;;5002510;28;20025;-81
2022/06/28 05:58:34;;;;;;;3.05;1.45;;;15.80;99.90;;;;;;5018906;28;20068;-81
2022/06/28 06:01:00;;;;;;;2.97;1.13;;;16.00;99.90;;;;;;5019004;28;20028;-80
2022/06/28 06:03:26;;;;;;;4.68;1.30;;;16.30;99.90;;;;;;5005541;28;20432;-81
2022/06/28 06:05:52;;;;;;;4.72;1.52;;;16.20;99.90;;;;;;5001532;28;20160;-81
2022/06/28 06:08:18;;;;;;;4.70;1.20;;;16.10;99.90;;;;;;5016531;28;20124;-78
2022/06/28 06:10:48;;;;;;;6.60;1.05;;;16.50;99.90;;;;;;5018507;28;20079;-79
2022/06/28 06:13:14;;;;;;;3.17;1.10;;;16.90;99.90;;;;;;5024562;28;20033;-78
2022/06/28 06:15:40;;;;;;;2.38;0.60;;;16.90;99.90;;;;;;5016632;28;20028;-79
2022/06/28 06:18:06;;;;;;;3.88;0.70;;;17.20;99.90;;;;;;5031882;28;20041;-79
2022/06/28 06:20:32;;;;;;;4.75;0.70;;;17.30;99.90;;;;;;5032499;28;20052;-78
2022/06/28 06:22:58;;;;;;;4.45;0.68;;;17.40;99.90;;;;;;5017822;28;20494;-79
2022/06/28 06:25:47;;;;;;;2.40;0.90;;;17.50;99.90;;;;;;4973402;28;20046;-78
2022/06/28 06:28:13;;;;;;;2.78;0.98;;;17.20;99.90;;;;;;4944842;28;20050;-77
2022/06/28 06:30:39;;;;;;;1.95;0.60;;;17.60;99.90;;;;;;4972611;28;20049;-78
2022/06/28 06:33:40;;;;;;;3.47;0.80;;;17.70;99.90;;;;;;4943310;28;20065;-78
2022/06/28 06:36:28;;;;;;;2.50;0.70;;;17.90;99.90;;;;;;4963661;28;20043;-77
2022/06/28 06:38:54;;;;;;;3.50;0.68;;;18.30;99.90;;;;;;4952542;28;20100;-78
2022/06/28 06:41:21;;;;;;;2.22;0.80;;;18.30;99.90;;;;;;4957498;28;20058;-77
2022/06/28 06:43:52;;;;;;;4.93;1.15;;;18.40;99.90;;;;;;4955996;28;20105;-79
2022/06/28 06:46:19;;;;;;;2.67;0.73;;;17.80;99.90;;;;;;4972168;28;20027;-78
2022/06/28 06:48:45;;;;;;;3.08;0.57;;;18.10;99.90;;;;;;4973111;28;20035;-77
2022/06/28 06:51:11;;;;;;;2.30;0.70;;;18.50;99.90;;;;;;4972241;28;20451;-79
2022/06/28 06:53:37;;;;;;;2.60;0.80;;;18.10;99.90;;;;;;4956015;28;20065;-78
2022/06/28 06:56:03;;;;;;;4.68;0.90;;;18.30;99.90;;;;;;4960357;28;20031;-78
2022/06/28 06:58:30;;;;;;;4.38;1.42;;;18.10;99.90;;;;;;4958566;28;20046;-79
2022/06/28 07:00:57;;;;;;;3.03;0.60;;;18.00;99.90;;;;;;4956951;28;20061;-78
2022/06/28 07:03:23;;;;;;;3.92;0.88;;;18.60;99.90;;;;;;4988593;28;20501;-78
2022/06/28 07:05:49;;;;;;;3.88;0.90;;;18.50;99.90;;;;;;5013184;28;20087;-78
2022/06/28 07:08:15;;;;;;;2.88;0.60;;;18.90;99.90;;;;;;5028115;28;20431;-76
2022/06/28 07:10:51;;;;;;;3.20;0.60;;;19.30;99.90;;;;;;5000172;28;20621;-81
2022/06/28 07:13:18;;;;;;;3.67;0.65;;;19.30;99.90;;;;;;5029138;28;20041;-78
2022/06/28 07:15:43;;;;;;;2.30;0.50;;;19.60;99.90;;;;;;5012359;28;20025;-78
2022/06/28 07:18:09;;;;;;;4.05;0.85;;;19.70;99.90;;;;;;5011225;28;20120;-80
2022/06/28 07:20:35;;;;;;;4.10;0.60;;;19.70;99.90;;;;;;5011483;28;20048;-80
2022/06/28 07:23:01;;;;;;;2.58;0.63;;;20.00;99.90;;;;;;5012664;28;20469;-78
2022/06/28 07:25:28;;;;;;;3.20;0.50;;;20.10;99.90;;;;;;4995120;28;20048;-77
2022/06/28 07:27:54;;;;;;;3.55;0.52;;;20.20;99.90;;;;;;5014169;28;20079;-80
2022/06/28 07:30:20;;;;;;;4.88;0.50;;;20.20;99.90;;;;;;5017093;28;20039;-79
2022/06/28 07:32:46;;;;;;;3.83;0.60;;;20.20;99.90;;;;;;5010139;28;20776;-80
2022/06/28 07:35:12;;;;;;;2.05;0.57;;;20.30;99.90;;;;;;5010872;28;20068;-80
2022/06/28 07:37:38;;;;;;;2.47;0.50;;;20.50;99.90;;;;;;5017269;28;20117;-80
2022/06/28 07:40:06;;;;;;;2.30;0.40;;;20.10;99.90;;;;;;5011985;28;20043;-80
2022/06/28 07:42:50;;;;;;;1.48;0.50;;;20.30;99.90;;;;;;5015500;28;20101;-77
2022/06/28 07:45:41;;;;;;;3.95;0.47;;;20.60;99.90;;;;;;5015378;28;20409;-81
2022/06/28 07:48:11;;;;;;;1.65;0.40;;;20.60;99.90;;;;;;4995058;28;20037;-78
2022/06/28 07:53:23;;;;;;;2.78;0.32;;;20.70;99.90;;;;;;5028168;28;20033;-79
2022/06/28 07:56:17;;;;;;;3.00;0.30;;;20.80;99.90;;;;;;5015189;28;20037;-78
2022/06/28 07:58:43;;;;;;;2.90;0.40;;;20.90;99.90;;;;;;5013913;28;20033;-77
2022/06/28 08:01:14;;;;;;;1.60;0.30;;;20.60;99.90;;;;;;5011870;28;20029;-79
2022/06/28 08:03:40;;;;;;;3.97;0.43;;;21.20;99.90;;;;;;5031134;28;20131;-78
2022/06/28 08:06:06;;;;;;;2.28;0.30;;;20.90;99.90;;;;;;5018224;28;20049;-79
2022/06/28 08:08:41;;;;;;;4.13;0.50;;;21.10;99.90;;;;;;5011573;28;20048;-78
2022/06/28 08:11:09;;;;;;;2.95;0.40;;;21.20;99.90;;;;;;4975551;28;20537;-82
2022/06/28 08:13:37;;;;;;;2.83;0.50;;;21.00;99.90;;;;;;5012763;28;20446;-79
2022/06/28 08:16:03;;;;;;;3.22;0.30;;;21.30;99.90;;;;;;4998545;28;20069;-78
2022/06/28 08:18:29;;;;;;;4.72;0.50;;;21.80;99.90;;;;;;5016504;28;20110;-78
2022/06/28 08:20:55;;;;;;;2.65;0.57;;;21.40;99.90;;;;;;5014864;28;20037;-80
2022/06/28 08:23:21;;;;;;;2.13;0.50;;;21.40;99.90;;;;;;5014893;28;20147;-79
2022/06/28 08:25:47;;;;;;;1.40;0.45;;;21.00;99.90;;;;;;5009097;28;20021;-79
2022/06/28 08:28:13;;;;;;;4.22;0.40;;;21.60;99.90;;;;;;5010854;28;20037;-79
2022/06/28 08:30:40;;;;;;;1.95;0.50;;;22.00;99.90;;;;;;5010614;28;20033;-79
2022/06/28 08:33:06;;;;;;;4.57;0.40;;;21.20;99.90;;;;;;4994767;28;20039;-81
2022/06/28 08:35:34;;;;;;;2.67;0.38;;;21.50;99.90;;;;;;5014123;28;20053;-82
2022/06/28 08:38:00;;;;;;;3.25;0.40;;;21.90;99.90;;;;;;5025644;28;20052;-79
2022/06/28 08:40:27;;;;;;;1.52;0.47;;;22.00;99.90;;;;;;5026546;28;20112;-81
2022/06/28 08:42:55;;;;;;;2.15;0.50;;;22.30;99.90;;;;;;5027461;28;20112;-81
2022/06/28 08:45:22;;;;;;;2.05;0.40;;;21.50;99.90;;;;;;5010747;28;20044;-81
2022/06/28 08:47:55;;;;;;;2.88;0.40;;;21.80;99.90;;;;;;4995047;28;20175;-81
2022/06/28 08:50:33;;;;;;;1.60;0.40;;;22.10;99.90;;;;;;5022881;28;20044;-84
2022/06/28 08:53:06;;;;;;;2.33;0.30;;;22.10;99.90;;;;;;5011163;28;20086;-81
2022/06/28 08:55:34;;;;;;;1.52;0.30;;;22.40;99.90;;;;;;5010680;28;20049;-83
2022/06/28 08:58:01;;;;;;;1.13;0.22;;;21.60;99.90;;;;;;5026110;28;20481;-83
2022/06/28 09:00:27;;;;;;;1.08;0.20;;;21.50;99.90;;;;;;5010442;28;20051;-81
2022/06/28 09:02:54;;;;;;;1.52;0.40;;;22.00;99.90;;;;;;5002804;28;22782;-82
2022/06/28 09:05:21;;;;;;;1.35;0.30;;;21.90;99.90;;;;;;5030379;28;20079;-80
2022/06/28 09:07:47;;;;;;;1.73;0.40;;;22.30;99.90;;;;;;5014082;28;20064;-83
2022/06/28 09:10:13;;;;;;;1.52;0.20;;;22.30;99.90;;;;;;4985300;28;20146;-83
2022/06/28 09:12:38;;;;;;;2.55;0.32;;;22.70;99.90;;;;;;5000237;28;20037;-81
2022/06/28 09:15:05;;;;;;;1.25;0.20;;;22.50;99.90;;;;;;5029350;28;20048;-81
2022/06/28 09:17:33;;;;;;;1.50;0.30;;;23.00;99.90;;;;;;4999359;28;20036;-84
2022/06/28 09:20:02;;;;;;;1.88;0.38;;;22.10;99.90;;;;;;4998159;28;20097;-84
2022/06/28 09:22:35;;;;;;;1.40;0.30;;;22.90;99.90;;;;;;5010383;28;20024;-85
2022/06/28 09:25:05;;;;;;;1.20;0.30;;;22.80;99.90;;;;;;5015801;28;20033;-81
2022/06/28 09:27:34;;;;;;;1.35;0.28;;;22.80;99.90;;;;;;5026749;28;20079;-81
2022/06/28 09:30:01;;;;;;;1.10;0.20;;;23.30;99.90;;;;;;4995726;28;20045;-83
2022/06/28 09:32:34;;;;;;;1.52;0.25;;;23.40;99.90;;;;;;4993612;28;20036;-81
2022/06/28 09:35:11;;;;;;;2.20;0.45;;;23.30;99.90;;;;;;5026621;28;20032;-81
2022/06/28 09:37:48;;;;;;;1.38;0.30;;;23.40;99.90;;;;;;5009361;28;20041;-81
2022/06/28 09:40:19;;;;;;;2.28;0.30;;;23.60;99.90;;;;;;4992338;28;20171;-82
2022/06/28 09:42:46;;;;;;;1.23;0.30;;;22.80;99.90;;;;;;5028222;28;20017;-81
2022/06/28 09:45:15;;;;;;;1.27;0.30;;;22.80;99.90;;;;;;5010560;28;20223;-83
2022/06/28 09:47:46;;;;;;;2.60;0.32;;;22.30;99.90;;;;;;4992649;28;20466;-82
2022/06/28 09:50:19;;;;;;;1.48;0.20;;;23.20;99.90;;;;;;5009615;28;20576;-81
2022/06/28 09:52:45;;;;;;;1.33;0.20;;;23.80;99.90;;;;;;5011587;28;20040;-84
2022/06/28 09:55:15;;;;;;;1.20;0.20;;;23.90;99.90;;;;;;5007478;28;20036;-81
2022/06/28 09:57:44;;;;;;;1.00;0.30;;;24.00;99.90;;;;;;5026173;28;20052;-81
2022/06/28 10:00:11;;;;;;;2.05;0.30;;;22.80;99.90;;;;;;5026980;28;20033;-79
2022/06/28 10:02:40;;;;;;;;;;;22.50;99.90;;;;;;5016116;28;20017;-80
2022/06/28 10:05:06;;;;;;;0.68;0.10;;;22.80;99.90;;;;;;5025878;28;19919;-81
2022/06/28 10:07:32;;;;;;;1.52;0.20;;;23.50;99.90;;;;;;5029098;28;20033;-82
2022/06/28 10:09:58;;;;;;;0.52;0.10;;;23.70;99.90;;;;;;4992985;28;20076;-83
2022/06/28 10:15:09;;;;;;;2.22;0.20;;;23.80;99.90;;;;;;5030560;28;20033;-82
2022/06/28 10:17:39;;;;;;;2.03;0.20;;;23.60;99.90;;;;;;5030611;28;22712;-82
2022/06/28 10:20:09;;;;;;;0.98;0.20;;;23.00;99.90;;;;;;5012271;28;20033;-83
2022/06/28 10:22:34;;;;;;;;;;;22.30;99.90;;;;;;4996859;28;20025;-81
2022/06/28 10:25:02;;;;;;;0.82;0.10;;;23.30;99.90;;;;;;5011103;28;19908;-83
2022/06/28 10:27:29;;;;;;;0.77;0.10;;;24.20;99.90;;;;;;5010932;28;20068;-82
2022/06/28 10:29:58;;;;;;;0.35;0.00;;;24.20;99.90;;;;;;5009591;28;20072;-82
2022/06/28 10:32:39;;;;;;;0.93;0.10;;;24.00;99.90;;;;;;4995649;28;20037;-82
2022/06/28 10:35:05;;;;;;;0.45;0.10;;;22.20;99.90;;;;;;5013626;28;21169;-80
2022/06/28 10:37:31;;;;;;;0.60;0.10;;;22.90;99.90;;;;;;5013426;28;20033;-81
2022/06/28 10:40:24;;;;;;;1.00;0.10;;;23.50;99.90;;;;;;5029962;28;20161;-81
2022/06/28 10:42:53;;;;;;;2.17;0.17;;;24.50;99.90;;;;;;4995044;28;20044;-81
2022/06/28 10:45:23;;;;;;;1.25;0.10;;;23.40;99.90;;;;;;5016237;28;20029;-81
2022/06/28 10:48:07;;;;;;;1.42;0.20;;;24.00;99.90;;;;;;5012052;28;20094;-80
2022/06/28 10:50:56;;;;;;;2.25;0.10;;;22.90;99.90;;;;;;5010022;28;20032;-81
2022/06/28 10:53:42;;;;;;;2.38;0.20;;;23.00;99.90;;;;;;5029373;28;20462;-82
2022/06/28 10:56:12;;;;;;;2.15;0.20;;;22.50;99.90;;;;;;5028660;28;20041;-81
2022/06/28 10:58:57;;;;;;;0.73;0.10;;;22.50;99.90;;;;;;4994888;28;20067;-81
2022/06/28 11:01:44;;;;;;;3.08;0.10;;;23.00;99.90;;;;;;4996441;28;20036;-78
2022/06/28 11:04:30;;;;;;;2.50;0.10;;;23.80;99.90;;;;;;5030316;28;20033;-81
2022/06/28 11:07:25;;;;;;;0.50;0.03;;;24.00;99.90;;;;;;5015586;28;20049;-82
2022/06/28 11:09:53;;;;;;;2.00;0.00;;;24.50;99.90;;;;;;5000975;28;20517;-83
2022/06/28 11:12:28;;;;;;;0.82;0.10;;;24.60;99.90;;;;;;4996114;28;20036;-81
2022/06/28 11:15:06;;;;;;;1.85;0.10;;;25.40;99.90;;;;;;5016992;28;20087;-81
2022/06/28 11:17:43;;;;;;;1.65;0.10;;;23.40;99.90;;;;;;5029383;28;20037;-81
2022/06/28 11:20:15;;;;;;;1.38;0.10;;;23.20;99.90;;;;;;5010874;28;20487;-82
2022/06/28 11:22:47;;;;;;;2.85;0.17;;;23.70;99.90;;;;;;5012257;28;20021;-81
2022/06/28 11:25:25;;;;;;;0.70;0.10;;;23.70;99.90;;;;;;5014251;28;20396;-80
2022/06/28 11:27:58;;;;;;;1.67;0.10;;;24.00;99.90;;;;;;5016239;28;20047;-81
2022/06/28 11:30:28;;;;;;;1.25;0.10;;;25.20;99.90;;;;;;5015122;28;20117;-84
2022/06/28 11:32:56;;;;;;;0.88;0.05;;;25.10;99.90;;;;;;5012342;28;20057;-81
2022/06/28 11:35:27;;;;;;;0.30;0.00;;;25.00;99.90;;;;;;5027716;28;20079;-81
2022/06/28 11:37:57;;;;;;;1.27;0.20;;;25.00;99.90;;;;;;5009302;28;20083;-81
2022/06/28 11:40:29;;;;;;;0.93;0.10;;;24.10;99.90;;;;;;5010387;28;20036;-81
2022/06/28 11:43:09;;;;;;;1.80;0.15;;;23.50;99.90;;;;;;4994969;28;20033;-82
2022/06/28 11:45:43;;;;;;;1.83;0.20;;;24.50;99.90;;;;;;5015534;28;20029;-83
2022/06/28 11:48:12;;;;;;;1.20;0.10;;;24.20;99.90;;;;;;5011369;28;20636;-83
2022/06/28 11:50:50;;;;;;;2.88;0.20;;;24.00;99.90;;;;;;5011964;28;20155;-83
2022/06/28 11:53:16;;;;;;;1.90;0.10;;;24.30;99.90;;;;;;5026291;28;20171;-83
2022/06/28 11:55:49;;;;;;;0.90;0.10;;;24.40;99.90;;;;;;5027935;28;20404;-82
2022/06/28 11:58:21;;;;;;;1.55;0.10;;;24.40;99.90;;;;;;5027920;28;20045;-83
2022/06/28 12:01:12;;;;;;;1.23;0.10;;;23.70;99.90;;;;;;5015997;28;20113;-82
2022/06/28 12:03:41;;;;;;;0.95;0.10;;;23.10;99.90;;;;;;4990678;28;20041;-83
2022/06/28 12:06:28;;;;;;;1.60;0.10;;;24.30;99.90;;;;;;4995075;28;20561;-81
2022/06/28 12:09:03;;;;;;;1.38;0.10;;;23.50;99.90;;;;;;5025007;28;20382;-83
2022/06/28 12:11:29;;;;;;;0.93;0.10;;;23.50;99.90;;;;;;5028812;28;20061;-83
2022/06/28 12:14:18;;;;;;;1.05;0.10;;;23.70;99.90;;;;;;5012368;28;20033;-82
2022/06/28 12:16:47;;;;;;;;;;;24.60;99.90;;;;;;5014408;28;20453;-82
2022/06/28 12:19:14;;;;;;;2.22;0.20;;;24.50;99.90;;;;;;4995515;28;19925;-81
2022/06/28 12:22:03;;;;;;;1.08;0.10;;;23.90;99.90;;;;;;5013201;28;20461;-80
2022/06/28 12:24:45;;;;;;;0.85;0.10;;;24.40;99.90;;;;;;5012531;28;20036;-80
2022/06/28 12:27:15;;;;;;;1.02;0.10;;;24.70;99.90;;;;;;5013054;28;20036;-81
2022/06/28 12:29:42;;;;;;;0.85;0.10;;;25.50;99.90;;;;;;4997493;28;20515;-81
2022/06/28 12:32:08;;;;;;;2.15;0.10;;;25.50;99.90;;;;;;5013209;28;20049;-80
2022/06/28 12:34:34;;;;;;;1.25;0.10;;;25.30;99.90;;;;;;5014689;28;20602;-82
2022/06/28 12:37:00;;;;;;;0.75;0.08;;;25.90;99.90;;;;;;5008876;28;20053;-81
2022/06/28 12:39:26;;;;;;;0.65;0.10;;;26.20;99.90;;;;;;5009144;28;20504;-80
2022/06/28 12:41:51;;;;;;;2.58;0.20;;;25.80;99.90;;;;;;5025591;28;20056;-83
2022/06/28 12:44:18;;;;;;;1.00;0.10;;;24.70;99.90;;;;;;5010222;28;20035;-81
2022/06/28 12:46:44;;;;;;;0.80;0.10;;;25.60;99.90;;;;;;5025415;28;20033;-81
2022/06/28 12:49:10;;;;;;;1.83;0.10;;;25.80;99.90;;;;;;5011020;28;20434;-79
2022/06/28 12:51:36;;;;;;;1.40;0.20;;;26.20;99.90;;;;;;5026711;28;20038;-80
2022/06/28 12:54:02;;;;;;;1.30;0.10;;;25.90;99.90;;;;;;5025847;28;20029;-83
2022/06/28 12:56:27;;;;;;;0.85;0.03;;;26.00;99.90;;;;;;5010389;28;20036;-80
2022/06/28 12:58:56;;;;;;;0.38;0.10;;;25.60;99.90;;;;;;5007547;28;20052;-80
2022/06/28 13:01:23;;;;;;;0.32;0.00;;;25.40;99.90;;;;;;5024389;28;20025;-80
2022/06/28 13:03:49;;;;;;;2.22;0.10;;;25.90;99.90;;;;;;5009782;28;20477;-81
2022/06/28 13:06:15;;;;;;;2.08;0.10;;;25.40;99.90;;;;;;5023142;28;20045;-80
2022/06/28 13:08:40;;;;;;;0.73;0.10;;;25.80;99.90;;;;;;5010400;28;20067;-81
2022/06/28 13:11:06;;;;;;;0.52;0.00;;;25.90;99.90;;;;;;4974472;28;20057;-80
2022/06/28 13:13:32;;;;;;;1.73;0.20;;;25.20;99.90;;;;;;5027723;28;20056;-81